This is the latest recevied weather packets stored in our database for station/object AG1T-20. If no packets are shown the sender has not sent any weather packets the latest 10 day(s).
| Time | Temp. | Humidity | Pressure | Rain* | Wind** | Luminosity | Snow |
|---|---|---|---|---|---|---|---|
| 1787440805 | 33.89° C | 26% | 1020.5 hPa | 0 mm | - | 196 W/m² | - |
| 1787440205 | 34.44° C | 26% | 1020.5 hPa | 0 mm | - | 211 W/m² | - |
| 1787439605 | 35° C | 25% | 1020.5 hPa | 0 mm | - | 262 W/m² | - |
| 1787439005 | 35° C | 25% | 1021.2 hPa | 0 mm | - | 309 W/m² | - |
| 1787438405 | 33.89° C | 26% | 1021.2 hPa | 0 mm | - | 372 W/m² | - |
| 1787437805 | 33.33° C | 27% | 1021.2 hPa | 0 mm | - | 419 W/m² | - |
| 1787437205 | 33.89° C | 27% | 1021.2 hPa | 0 mm | - | 487 W/m² | - |
| 1787436605 | 33.33° C | 29% | 1021.2 hPa | 0 mm | - | 522 W/m² | - |
| 1787436005 | 33.33° C | 27% | 1021.2 hPa | 0 mm | - | 485 W/m² | - |
| 1787435404 | 33.33° C | 29% | 1021.9 hPa | 0 mm | - | 506 W/m² | - |
| 1787434805 | 33.33° C | 30% | 1021.9 hPa | 0 mm | - | 533 W/m² | - |
| 1787434204 | 32.78° C | 29% | 1021.9 hPa | 0 mm | - | 551 W/m² | - |
| 1787433604 | 33.33° C | 28% | 1021.9 hPa | 0 mm | - | 563 W/m² | - |
| 1787433005 | 32.78° C | 28% | 1021.9 hPa | 0 mm | - | 591 W/m² | - |
| 1787432405 | 32.22° C | 31% | 1021.9 hPa | 0 mm | - | 599 W/m² | - |
| 1787431805 | 32.78° C | 31% | 1022.6 hPa | 0 mm | - | 625 W/m² | - |
| 1787431205 | 33.33° C | 29% | 1022.6 hPa | 0 mm | - | 653 W/m² | - |
| 1787430605 | 32.78° C | 30% | 1022.6 hPa | 0 mm | - | 659 W/m² | - |
| 1787430004 | 32.22° C | 30% | 1022.6 hPa | 0 mm | - | 704 W/m² | - |
| 1787429405 | 32.78° C | 27% | 1022.6 hPa | 0 mm | - | 711 W/m² | - |
| 1787428805 | 32.22° C | 27% | 1022.6 hPa | 0 mm | - | 749 W/m² | - |
| 1787428205 | 32.78° C | 27% | 1023.1 hPa | 0 mm | - | 757 W/m² | - |
| 1787427604 | 32.78° C | 27% | 1023.1 hPa | 0 mm | - | 773 W/m² | - |
| 1787427005 | 32.22° C | 29% | 1023.1 hPa | 0 mm | - | 792 W/m² | - |
| 1787426404 | 32.22° C | 27% | 1023.1 hPa | 0 mm | - | 805 W/m² | - |
* Rain latest hour (hover to see other rain measurements)
** Current wind speed in m/s (hover to see current wind gust speed)